sensor_id;sensor_type;location;lat;lon;timestamp;temperature;humidity
19389;DHT22;9830;41.876;23.474;2024-03-02T00:00:10;5.50;99.90
19389;DHT22;9830;41.876;23.474;2024-03-02T00:02:45;5.50;99.90
19389;DHT22;9830;41.876;23.474;2024-03-02T00:05:21;5.50;99.90
19389;DHT22;9830;41.876;23.474;2024-03-02T00:07:54;5.50;99.90
19389;DHT22;9830;41.876;23.474;2024-03-02T00:10:45;5.50;99.90
19389;DHT22;9830;41.876;23.474;2024-03-02T00:13:12;5.50;99.90
19389;DHT22;9830;41.876;23.474;2024-03-02T00:18:12;5.50;99.90
19389;DHT22;9830;41.876;23.474;2024-03-02T00:20:39;5.50;99.90
19389;DHT22;9830;41.876;23.474;2024-03-02T00:23:09;5.50;99.90
19389;DHT22;9830;41.876;23.474;2024-03-02T00:25:44;5.50;99.90
19389;DHT22;9830;41.876;23.474;2024-03-02T00:28:23;5.60;99.90
19389;DHT22;9830;41.876;23.474;2024-03-02T00:33:27;5.60;99.90
19389;DHT22;9830;41.876;23.474;2024-03-02T00:35:55;5.60;99.90
19389;DHT22;9830;41.876;23.474;2024-03-02T00:38:22;5.60;99.90
19389;DHT22;9830;41.876;23.474;2024-03-02T00:40:48;5.70;99.90
19389;DHT22;9830;41.876;23.474;2024-03-02T00:43:48;5.70;99.90
19389;DHT22;9830;41.876;23.474;2024-03-02T00:46:19;5.70;99.90
19389;DHT22;9830;41.876;23.474;2024-03-02T00:48:53;5.60;99.90
19389;DHT22;9830;41.876;23.474;2024-03-02T00:51:21;5.60;99.90
19389;DHT22;9830;41.876;23.474;2024-03-02T00:53:47;5.70;99.90
19389;DHT22;9830;41.876;23.474;2024-03-02T00:56:13;5.70;99.90
19389;DHT22;9830;41.876;23.474;2024-03-02T00:58:39;5.70;99.90
19389;DHT22;9830;41.876;23.474;2024-03-02T01:01:05;5.70;99.90
19389;DHT22;9830;41.876;23.474;2024-03-02T01:03:32;5.80;99.90
19389;DHT22;9830;41.876;23.474;2024-03-02T01:05:58;5.80;99.90
19389;DHT22;9830;41.876;23.474;2024-03-02T01:08:24;5.80;99.90
19389;DHT22;9830;41.876;23.474;2024-03-02T01:10:51;5.70;99.90
19389;DHT22;9830;41.876;23.474;2024-03-02T01:13:17;5.70;99.90
19389;DHT22;9830;41.876;23.474;2024-03-02T01:15:42;5.60;99.90
19389;DHT22;9830;41.876;23.474;2024-03-02T01:18:09;5.60;99.90
19389;DHT22;9830;41.876;23.474;2024-03-02T01:20:35;5.60;99.90
19389;DHT22;9830;41.876;23.474;2024-03-02T01:23:00;5.60;99.90
19389;DHT22;9830;41.876;23.474;2024-03-02T01:25:26;5.60;99.90
19389;DHT22;9830;41.876;23.474;2024-03-02T01:27:52;5.70;99.90
19389;DHT22;9830;41.876;23.474;2024-03-02T01:30:17;5.70;99.90
19389;DHT22;9830;41.876;23.474;2024-03-02T01:32:43;5.70;99.90
19389;DHT22;9830;41.876;23.474;2024-03-02T01:35:09;5.70;99.90
19389;DHT22;9830;41.876;23.474;2024-03-02T01:37:34;5.70;99.90
19389;DHT22;9830;41.876;23.474;2024-03-02T01:40:00;5.60;99.90
19389;DHT22;9830;41.876;23.474;2024-03-02T01:42:26;5.60;99.90
19389;DHT22;9830;41.876;23.474;2024-03-02T01:44:51;5.70;99.90
19389;DHT22;9830;41.876;23.474;2024-03-02T01:47:17;5.60;99.90
19389;DHT22;9830;41.876;23.474;2024-03-02T01:49:43;5.60;99.90
19389;DHT22;9830;41.876;23.474;2024-03-02T01:52:09;5.60;99.90
19389;DHT22;9830;41.876;23.474;2024-03-02T01:54:34;5.60;99.90
19389;DHT22;9830;41.876;23.474;2024-03-02T01:57:00;5.60;99.90
19389;DHT22;9830;41.876;23.474;2024-03-02T01:59:26;5.70;99.90
19389;DHT22;9830;41.876;23.474;2024-03-02T02:01:52;5.70;99.90
19389;DHT22;9830;41.876;23.474;2024-03-02T02:04:18;5.80;99.90
19389;DHT22;9830;41.876;23.474;2024-03-02T02:06:47;5.70;99.90
19389;DHT22;9830;41.876;23.474;2024-03-02T02:09:12;5.70;99.90
19389;DHT22;9830;41.876;23.474;2024-03-02T02:11:38;5.60;99.90
19389;DHT22;9830;41.876;23.474;2024-03-02T02:14:04;5.70;99.90
19389;DHT22;9830;41.876;23.474;2024-03-02T02:16:31;5.60;99.90
19389;DHT22;9830;41.876;23.474;2024-03-02T02:18:57;5.70;99.90
19389;DHT22;9830;41.876;23.474;2024-03-02T02:21:23;5.70;99.90
19389;DHT22;9830;41.876;23.474;2024-03-02T02:23:48;5.70;99.90
19389;DHT22;9830;41.876;23.474;2024-03-02T02:26:15;5.70;99.90
19389;DHT22;9830;41.876;23.474;2024-03-02T02:28:41;5.70;99.90
19389;DHT22;9830;41.876;23.474;2024-03-02T02:31:13;5.70;99.90
19389;DHT22;9830;41.876;23.474;2024-03-02T02:33:39;5.70;99.90
19389;DHT22;9830;41.876;23.474;2024-03-02T02:36:05;5.70;99.90
19389;DHT22;9830;41.876;23.474;2024-03-02T02:38:33;5.80;99.90
19389;DHT22;9830;41.876;23.474;2024-03-02T02:41:00;5.80;99.90
19389;DHT22;9830;41.876;23.474;2024-03-02T02:43:25;5.70;99.90
19389;DHT22;9830;41.876;23.474;2024-03-02T02:45:51;5.70;99.90
19389;DHT22;9830;41.876;23.474;2024-03-02T02:48:17;5.70;99.90
19389;DHT22;9830;41.876;23.474;2024-03-02T02:50:42;5.60;99.90
19389;DHT22;9830;41.876;23.474;2024-03-02T02:53:08;5.60;99.90
19389;DHT22;9830;41.876;23.474;2024-03-02T02:55:35;5.60;99.90
19389;DHT22;9830;41.876;23.474;2024-03-02T02:58:06;5.70;99.90
19389;DHT22;9830;41.876;23.474;2024-03-02T03:00:31;5.60;99.90
19389;DHT22;9830;41.876;23.474;2024-03-02T03:02:58;5.60;99.90
19389;DHT22;9830;41.876;23.474;2024-03-02T03:05:23;5.60;99.90
19389;DHT22;9830;41.876;23.474;2024-03-02T03:07:49;5.60;99.90
19389;DHT22;9830;41.876;23.474;2024-03-02T03:10:16;5.70;99.90
19389;DHT22;9830;41.876;23.474;2024-03-02T03:12:42;5.80;99.90
19389;DHT22;9830;41.876;23.474;2024-03-02T03:15:09;5.80;99.90
19389;DHT22;9830;41.876;23.474;2024-03-02T03:17:35;5.70;99.90
19389;DHT22;9830;41.876;23.474;2024-03-02T03:20:03;5.60;99.90
19389;DHT22;9830;41.876;23.474;2024-03-02T03:22:32;5.60;99.90
19389;DHT22;9830;41.876;23.474;2024-03-02T03:24:58;5.50;99.90
19389;DHT22;9830;41.876;23.474;2024-03-02T03:27:24;5.50;99.90
19389;DHT22;9830;41.876;23.474;2024-03-02T03:29:49;5.60;99.90
19389;DHT22;9830;41.876;23.474;2024-03-02T03:32:15;5.60;99.90
19389;DHT22;9830;41.876;23.474;2024-03-02T03:34:42;5.50;99.90
19389;DHT22;9830;41.876;23.474;2024-03-02T03:37:07;5.60;99.90
19389;DHT22;9830;41.876;23.474;2024-03-02T03:39:34;5.60;99.90
19389;DHT22;9830;41.876;23.474;2024-03-02T03:42:01;5.60;99.90
19389;DHT22;9830;41.876;23.474;2024-03-02T03:44:26;5.70;99.90
19389;DHT22;9830;41.876;23.474;2024-03-02T03:46:52;5.70;99.90
19389;DHT22;9830;41.876;23.474;2024-03-02T03:49:18;5.60;99.90
19389;DHT22;9830;41.876;23.474;2024-03-02T03:51:43;5.60;99.90
19389;DHT22;9830;41.876;23.474;2024-03-02T03:54:09;5.50;99.90
19389;DHT22;9830;41.876;23.474;2024-03-02T03:56:36;5.50;99.90
19389;DHT22;9830;41.876;23.474;2024-03-02T03:59:02;5.50;99.90
19389;DHT22;9830;41.876;23.474;2024-03-02T04:01:28;5.50;99.90
19389;DHT22;9830;41.876;23.474;2024-03-02T04:03:54;5.50;99.90
19389;DHT22;9830;41.876;23.474;2024-03-02T04:06:19;5.50;99.90
19389;DHT22;9830;41.876;23.474;2024-03-02T04:08:45;5.60;99.90
19389;DHT22;9830;41.876;23.474;2024-03-02T04:11:10;5.60;99.90
19389;DHT22;9830;41.876;23.474;2024-03-02T04:13:36;5.60;99.90
19389;DHT22;9830;41.876;23.474;2024-03-02T04:16:02;5.50;99.90
19389;DHT22;9830;41.876;23.474;2024-03-02T04:18:29;5.50;99.90
19389;DHT22;9830;41.876;23.474;2024-03-02T04:20:54;5.50;99.90
19389;DHT22;9830;41.876;23.474;2024-03-02T04:23:20;5.50;99.90
19389;DHT22;9830;41.876;23.474;2024-03-02T04:25:46;5.50;99.90
19389;DHT22;9830;41.876;23.474;2024-03-02T04:28:11;5.50;99.90
19389;DHT22;9830;41.876;23.474;2024-03-02T04:30:38;5.50;99.90
19389;DHT22;9830;41.876;23.474;2024-03-02T04:33:04;5.50;99.90
19389;DHT22;9830;41.876;23.474;2024-03-02T04:35:31;5.50;99.90
19389;DHT22;9830;41.876;23.474;2024-03-02T04:37:56;5.50;99.90
19389;DHT22;9830;41.876;23.474;2024-03-02T04:40:22;5.40;99.90
19389;DHT22;9830;41.876;23.474;2024-03-02T04:42:48;5.50;99.90
19389;DHT22;9830;41.876;23.474;2024-03-02T04:45:13;5.40;99.90
19389;DHT22;9830;41.876;23.474;2024-03-02T04:47:39;5.50;99.90
19389;DHT22;9830;41.876;23.474;2024-03-02T04:50:05;5.50;99.90
19389;DHT22;9830;41.876;23.474;2024-03-02T04:52:33;5.40;99.90
19389;DHT22;9830;41.876;23.474;2024-03-02T04:54:58;5.40;99.90
19389;DHT22;9830;41.876;23.474;2024-03-02T04:57:43;5.40;99.90
19389;DHT22;9830;41.876;23.474;2024-03-02T05:00:09;5.50;99.90
19389;DHT22;9830;41.876;23.474;2024-03-02T05:02:35;5.40;99.90
19389;DHT22;9830;41.876;23.474;2024-03-02T05:05:01;5.40;99.90
19389;DHT22;9830;41.876;23.474;2024-03-02T05:07:28;5.50;99.90
19389;DHT22;9830;41.876;23.474;2024-03-02T05:09:54;5.50;99.90
19389;DHT22;9830;41.876;23.474;2024-03-02T05:12:19;5.50;99.90
19389;DHT22;9830;41.876;23.474;2024-03-02T05:15:04;5.40;99.90
19389;DHT22;9830;41.876;23.474;2024-03-02T05:17:29;5.50;99.90
19389;DHT22;9830;41.876;23.474;2024-03-02T05:19:55;5.50;99.90
19389;DHT22;9830;41.876;23.474;2024-03-02T05:22:21;5.50;99.90
19389;DHT22;9830;41.876;23.474;2024-03-02T05:24:46;5.50;99.90
19389;DHT22;9830;41.876;23.474;2024-03-02T05:27:12;5.50;99.90
19389;DHT22;9830;41.876;23.474;2024-03-02T05:29:38;5.60;99.90
19389;DHT22;9830;41.876;23.474;2024-03-02T05:32:03;5.50;99.90
19389;DHT22;9830;41.876;23.474;2024-03-02T05:34:29;5.50;99.90
19389;DHT22;9830;41.876;23.474;2024-03-02T05:36:56;5.60;99.90
19389;DHT22;9830;41.876;23.474;2024-03-02T05:39:23;5.60;99.90
19389;DHT22;9830;41.876;23.474;2024-03-02T05:41:49;5.60;99.90
19389;DHT22;9830;41.876;23.474;2024-03-02T05:44:14;5.50;99.90
19389;DHT22;9830;41.876;23.474;2024-03-02T05:46:41;5.60;99.90
19389;DHT22;9830;41.876;23.474;2024-03-02T05:49:07;5.60;99.90
19389;DHT22;9830;41.876;23.474;2024-03-02T05:51:33;5.60;99.90
19389;DHT22;9830;41.876;23.474;2024-03-02T05:53:59;5.60;99.90
19389;DHT22;9830;41.876;23.474;2024-03-02T05:56:24;5.70;99.90
19389;DHT22;9830;41.876;23.474;2024-03-02T05:58:50;5.70;99.90
19389;DHT22;9830;41.876;23.474;2024-03-02T06:04:04;5.80;99.90
19389;DHT22;9830;41.876;23.474;2024-03-02T06:06:30;5.80;99.90
19389;DHT22;9830;41.876;23.474;2024-03-02T06:08:57;5.90;99.90
19389;DHT22;9830;41.876;23.474;2024-03-02T06:11:24;6.00;99.90
19389;DHT22;9830;41.876;23.474;2024-03-02T06:13:50;6.00;99.90
19389;DHT22;9830;41.876;23.474;2024-03-02T06:16:15;6.00;99.90
19389;DHT22;9830;41.876;23.474;2024-03-02T06:18:41;6.00;99.90
19389;DHT22;9830;41.876;23.474;2024-03-02T06:21:07;6.10;99.90
19389;DHT22;9830;41.876;23.474;2024-03-02T06:23:33;6.10;99.90
19389;DHT22;9830;41.876;23.474;2024-03-02T06:26:00;6.10;99.90
19389;DHT22;9830;41.876;23.474;2024-03-02T06:28:26;6.30;99.90
19389;DHT22;9830;41.876;23.474;2024-03-02T06:30:52;6.30;99.90
19389;DHT22;9830;41.876;23.474;2024-03-02T06:33:17;6.40;99.90
19389;DHT22;9830;41.876;23.474;2024-03-02T06:35:43;6.60;99.90
19389;DHT22;9830;41.876;23.474;2024-03-02T06:38:09;6.60;99.90
19389;DHT22;9830;41.876;23.474;2024-03-02T06:40:34;6.70;99.90
19389;DHT22;9830;41.876;23.474;2024-03-02T06:43:00;6.80;99.90
19389;DHT22;9830;41.876;23.474;2024-03-02T06:45:26;6.80;99.90
19389;DHT22;9830;41.876;23.474;2024-03-02T06:47:52;6.90;99.90
19389;DHT22;9830;41.876;23.474;2024-03-02T06:50:17;7.00;99.90
19389;DHT22;9830;41.876;23.474;2024-03-02T06:52:43;7.00;99.90
19389;DHT22;9830;41.876;23.474;2024-03-02T06:55:09;7.00;99.90
19389;DHT22;9830;41.876;23.474;2024-03-02T06:57:35;7.10;99.90
19389;DHT22;9830;41.876;23.474;2024-03-02T07:00:00;7.20;99.90
19389;DHT22;9830;41.876;23.474;2024-03-02T07:02:27;7.20;99.90
19389;DHT22;9830;41.876;23.474;2024-03-02T07:04:53;7.30;99.90
19389;DHT22;9830;41.876;23.474;2024-03-02T07:07:19;7.40;99.90
19389;DHT22;9830;41.876;23.474;2024-03-02T07:09:45;7.60;99.90
19389;DHT22;9830;41.876;23.474;2024-03-02T07:12:10;7.60;99.90
19389;DHT22;9830;41.876;23.474;2024-03-02T07:14:36;7.80;99.90
19389;DHT22;9830;41.876;23.474;2024-03-02T07:17:20;8.10;99.90
19389;DHT22;9830;41.876;23.474;2024-03-02T07:19:46;8.30;99.90
19389;DHT22;9830;41.876;23.474;2024-03-02T07:22:12;8.50;99.90
19389;DHT22;9830;41.876;23.474;2024-03-02T07:24:41;8.70;99.90
19389;DHT22;9830;41.876;23.474;2024-03-02T07:27:07;8.80;99.90
19389;DHT22;9830;41.876;23.474;2024-03-02T07:29:33;8.80;99.90
19389;DHT22;9830;41.876;23.474;2024-03-02T07:31:59;8.80;99.90
19389;DHT22;9830;41.876;23.474;2024-03-02T07:34:25;8.90;99.90
19389;DHT22;9830;41.876;23.474;2024-03-02T07:36:51;8.90;99.90
19389;DHT22;9830;41.876;23.474;2024-03-02T07:39:16;9.10;99.90
19389;DHT22;9830;41.876;23.474;2024-03-02T07:41:42;8.90;99.90
19389;DHT22;9830;41.876;23.474;2024-03-02T07:44:09;8.90;99.90
19389;DHT22;9830;41.876;23.474;2024-03-02T07:46:34;9.10;99.90
19389;DHT22;9830;41.876;23.474;2024-03-02T07:49:00;9.40;99.90
19389;DHT22;9830;41.876;23.474;2024-03-02T07:51:26;9.50;99.90
19389;DHT22;9830;41.876;23.474;2024-03-02T07:53:51;9.70;99.90
19389;DHT22;9830;41.876;23.474;2024-03-02T07:56:17;10.00;99.90
19389;DHT22;9830;41.876;23.474;2024-03-02T07:58:48;10.30;99.90
19389;DHT22;9830;41.876;23.474;2024-03-02T08:01:14;10.90;99.90
19389;DHT22;9830;41.876;23.474;2024-03-02T08:03:40;11.10;99.90
19389;DHT22;9830;41.876;23.474;2024-03-02T08:06:06;11.10;99.90
19389;DHT22;9830;41.876;23.474;2024-03-02T08:08:32;11.50;99.90
19389;DHT22;9830;41.876;23.474;2024-03-02T08:10:58;11.80;99.90
19389;DHT22;9830;41.876;23.474;2024-03-02T08:13:24;12.30;99.90
19389;DHT22;9830;41.876;23.474;2024-03-02T08:15:50;12.40;99.90
19389;DHT22;9830;41.876;23.474;2024-03-02T08:18:16;12.30;99.90
19389;DHT22;9830;41.876;23.474;2024-03-02T08:20:41;12.20;99.90
19389;DHT22;9830;41.876;23.474;2024-03-02T08:23:07;11.60;99.90
19389;DHT22;9830;41.876;23.474;2024-03-02T08:25:33;11.00;99.90
19389;DHT22;9830;41.876;23.474;2024-03-02T08:27:59;10.80;99.90
19389;DHT22;9830;41.876;23.474;2024-03-02T08:30:25;10.90;99.90
19389;DHT22;9830;41.876;23.474;2024-03-02T08:32:51;11.00;99.90
19389;DHT22;9830;41.876;23.474;2024-03-02T08:35:17;11.00;99.90
19389;DHT22;9830;41.876;23.474;2024-03-02T08:37:42;10.70;99.90
19389;DHT22;9830;41.876;23.474;2024-03-02T08:40:11;10.70;99.90
19389;DHT22;9830;41.876;23.474;2024-03-02T08:42:37;10.80;99.90
19389;DHT22;9830;41.876;23.474;2024-03-02T08:45:03;11.10;99.90
19389;DHT22;9830;41.876;23.474;2024-03-02T08:47:29;10.70;99.90
19389;DHT22;9830;41.876;23.474;2024-03-02T08:49:55;10.70;99.90
19389;DHT22;9830;41.876;23.474;2024-03-02T08:52:20;10.70;99.90
19389;DHT22;9830;41.876;23.474;2024-03-02T08:54:46;10.60;99.90
19389;DHT22;9830;41.876;23.474;2024-03-02T08:57:12;10.70;99.90
19389;DHT22;9830;41.876;23.474;2024-03-02T08:59:37;10.90;99.90
19389;DHT22;9830;41.876;23.474;2024-03-02T09:02:03;11.00;99.90
19389;DHT22;9830;41.876;23.474;2024-03-02T09:04:29;11.30;99.90
19389;DHT22;9830;41.876;23.474;2024-03-02T09:06:55;11.20;99.90
19389;DHT22;9830;41.876;23.474;2024-03-02T09:09:20;11.40;99.90
19389;DHT22;9830;41.876;23.474;2024-03-02T09:11:46;11.70;99.90
19389;DHT22;9830;41.876;23.474;2024-03-02T09:14:12;11.60;99.90
19389;DHT22;9830;41.876;23.474;2024-03-02T09:16:40;11.30;99.90
19389;DHT22;9830;41.876;23.474;2024-03-02T09:19:06;11.70;99.90
19389;DHT22;9830;41.876;23.474;2024-03-02T09:21:31;11.70;99.90
19389;DHT22;9830;41.876;23.474;2024-03-02T09:23:58;12.00;99.90
19389;DHT22;9830;41.876;23.474;2024-03-02T09:26:23;12.50;99.90
19389;DHT22;9830;41.876;23.474;2024-03-02T09:28:50;12.20;99.90
19389;DHT22;9830;41.876;23.474;2024-03-02T09:31:16;12.00;99.90
19389;DHT22;9830;41.876;23.474;2024-03-02T09:33:42;12.30;99.90
19389;DHT22;9830;41.876;23.474;2024-03-02T09:36:18;12.70;99.90
19389;DHT22;9830;41.876;23.474;2024-03-02T09:38:44;12.40;99.90
19389;DHT22;9830;41.876;23.474;2024-03-02T09:41:10;12.70;99.90
19389;DHT22;9830;41.876;23.474;2024-03-02T09:43:36;12.50;99.90
19389;DHT22;9830;41.876;23.474;2024-03-02T09:46:02;12.50;99.90
19389;DHT22;9830;41.876;23.474;2024-03-02T09:48:29;12.70;99.90
19389;DHT22;9830;41.876;23.474;2024-03-02T09:50:54;12.50;99.90
19389;DHT22;9830;41.876;23.474;2024-03-02T09:53:20;11.90;99.90
19389;DHT22;9830;41.876;23.474;2024-03-02T09:55:47;11.90;99.90
19389;DHT22;9830;41.876;23.474;2024-03-02T09:58:13;11.80;99.90
19389;DHT22;9830;41.876;23.474;2024-03-02T10:00:39;11.90;99.90
19389;DHT22;9830;41.876;23.474;2024-03-02T10:03:05;12.00;99.90
19389;DHT22;9830;41.876;23.474;2024-03-02T10:05:31;12.10;99.90
19389;DHT22;9830;41.876;23.474;2024-03-02T10:08:01;12.10;99.90
19389;DHT22;9830;41.876;23.474;2024-03-02T10:10:44;12.20;99.90
19389;DHT22;9830;41.876;23.474;2024-03-02T10:13:10;12.30;99.90
19389;DHT22;9830;41.876;23.474;2024-03-02T10:15:38;12.50;99.90
19389;DHT22;9830;41.876;23.474;2024-03-02T10:18:08;12.40;99.90
19389;DHT22;9830;41.876;23.474;2024-03-02T10:20:35;12.40;99.90
19389;DHT22;9830;41.876;23.474;2024-03-02T10:23:16;12.40;99.90
19389;DHT22;9830;41.876;23.474;2024-03-02T10:25:43;12.50;99.90
19389;DHT22;9830;41.876;23.474;2024-03-02T10:28:09;12.40;99.90
19389;DHT22;9830;41.876;23.474;2024-03-02T10:30:35;12.10;99.90
19389;DHT22;9830;41.876;23.474;2024-03-02T10:33:02;12.20;99.90
19389;DHT22;9830;41.876;23.474;2024-03-02T10:35:29;12.00;99.90
19389;DHT22;9830;41.876;23.474;2024-03-02T10:37:58;12.00;99.90
19389;DHT22;9830;41.876;23.474;2024-03-02T10:40:24;12.10;99.90
19389;DHT22;9830;41.876;23.474;2024-03-02T10:42:51;12.20;99.90
19389;DHT22;9830;41.876;23.474;2024-03-02T10:45:19;12.10;99.90
19389;DHT22;9830;41.876;23.474;2024-03-02T10:47:47;12.30;99.90
19389;DHT22;9830;41.876;23.474;2024-03-02T10:50:12;12.50;99.90
19389;DHT22;9830;41.876;23.474;2024-03-02T10:52:38;12.60;99.90
19389;DHT22;9830;41.876;23.474;2024-03-02T10:55:05;12.60;99.90
19389;DHT22;9830;41.876;23.474;2024-03-02T10:57:45;13.10;99.90
19389;DHT22;9830;41.876;23.474;2024-03-02T11:00:14;13.10;99.90
19389;DHT22;9830;41.876;23.474;2024-03-02T11:02:50;13.10;99.90
19389;DHT22;9830;41.876;23.474;2024-03-02T11:05:28;13.30;99.90
19389;DHT22;9830;41.876;23.474;2024-03-02T11:08:00;13.20;99.90
19389;DHT22;9830;41.876;23.474;2024-03-02T11:10:31;13.00;99.90
19389;DHT22;9830;41.876;23.474;2024-03-02T11:13:11;13.20;99.90
19389;DHT22;9830;41.876;23.474;2024-03-02T11:15:37;13.10;99.90
19389;DHT22;9830;41.876;23.474;2024-03-02T11:18:05;12.80;99.90
19389;DHT22;9830;41.876;23.474;2024-03-02T11:20:37;12.90;99.90
19389;DHT22;9830;41.876;23.474;2024-03-02T11:23:10;12.90;99.90
19389;DHT22;9830;41.876;23.474;2024-03-02T11:25:36;13.10;99.90
19389;DHT22;9830;41.876;23.474;2024-03-02T11:28:03;13.20;99.90
19389;DHT22;9830;41.876;23.474;2024-03-02T11:32:59;13.50;99.90
19389;DHT22;9830;41.876;23.474;2024-03-02T11:35:26;13.40;99.90
19389;DHT22;9830;41.876;23.474;2024-03-02T11:37:52;13.60;99.90
19389;DHT22;9830;41.876;23.474;2024-03-02T11:40:30;13.80;99.90
19389;DHT22;9830;41.876;23.474;2024-03-02T11:43:00;13.80;99.90
19389;DHT22;9830;41.876;23.474;2024-03-02T11:45:29;13.90;99.90
19389;DHT22;9830;41.876;23.474;2024-03-02T11:47:57;13.90;99.90
19389;DHT22;9830;41.876;23.474;2024-03-02T11:50:39;13.80;99.90
19389;DHT22;9830;41.876;23.474;2024-03-02T11:53:06;13.50;99.90
19389;DHT22;9830;41.876;23.474;2024-03-02T11:55:35;13.40;99.90
19389;DHT22;9830;41.876;23.474;2024-03-02T11:58:03;13.90;99.90
19389;DHT22;9830;41.876;23.474;2024-03-02T12:00:29;14.50;99.90
19389;DHT22;9830;41.876;23.474;2024-03-02T12:03:08;14.70;99.90
19389;DHT22;9830;41.876;23.474;2024-03-02T12:05:35;14.80;99.90
19389;DHT22;9830;41.876;23.474;2024-03-02T12:08:06;14.00;99.90
19389;DHT22;9830;41.876;23.474;2024-03-02T12:10:32;14.20;99.90
19389;DHT22;9830;41.876;23.474;2024-03-02T12:13:03;14.30;99.90
19389;DHT22;9830;41.876;23.474;2024-03-02T12:15:30;14.10;99.90
19389;DHT22;9830;41.876;23.474;2024-03-02T12:17:57;13.70;99.90
19389;DHT22;9830;41.876;23.474;2024-03-02T12:20:24;13.40;99.90
19389;DHT22;9830;41.876;23.474;2024-03-02T12:22:54;13.00;99.90
19389;DHT22;9830;41.876;23.474;2024-03-02T12:25:21;12.80;99.90
19389;DHT22;9830;41.876;23.474;2024-03-02T12:27:50;12.90;99.90
19389;DHT22;9830;41.876;23.474;2024-03-02T12:30:19;12.70;99.90
19389;DHT22;9830;41.876;23.474;2024-03-02T12:32:45;12.50;99.90
19389;DHT22;9830;41.876;23.474;2024-03-02T12:35:11;12.50;99.90
19389;DHT22;9830;41.876;23.474;2024-03-02T12:37:45;12.30;99.90
19389;DHT22;9830;41.876;23.474;2024-03-02T12:40:12;12.20;99.90
19389;DHT22;9830;41.876;23.474;2024-03-02T12:42:39;12.30;99.90
19389;DHT22;9830;41.876;23.474;2024-03-02T12:45:06;12.10;99.90
19389;DHT22;9830;41.876;23.474;2024-03-02T12:47:33;11.90;99.90
19389;DHT22;9830;41.876;23.474;2024-03-02T12:49:59;12.00;99.90
19389;DHT22;9830;41.876;23.474;2024-03-02T12:52:25;12.20;99.90
19389;DHT22;9830;41.876;23.474;2024-03-02T12:54:51;12.30;99.90
19389;DHT22;9830;41.876;23.474;2024-03-02T12:57:18;12.40;99.90
19389;DHT22;9830;41.876;23.474;2024-03-02T12:59:47;12.40;99.90
19389;DHT22;9830;41.876;23.474;2024-03-02T13:02:19;12.20;99.90
19389;DHT22;9830;41.876;23.474;2024-03-02T13:04:52;12.40;99.90
19389;DHT22;9830;41.876;23.474;2024-03-02T13:07:23;12.40;99.90
19389;DHT22;9830;41.876;23.474;2024-03-02T13:09:53;12.40;99.90
19389;DHT22;9830;41.876;23.474;2024-03-02T13:12:24;12.40;99.90
19389;DHT22;9830;41.876;23.474;2024-03-02T13:14:53;12.50;99.90
19389;DHT22;9830;41.876;23.474;2024-03-02T13:17:19;12.40;99.90
19389;DHT22;9830;41.876;23.474;2024-03-02T13:19:58;12.40;99.90
19389;DHT22;9830;41.876;23.474;2024-03-02T13:22:26;12.50;99.90
19389;DHT22;9830;41.876;23.474;2024-03-02T13:24:53;12.60;99.90
19389;DHT22;9830;41.876;23.474;2024-03-02T13:27:22;12.70;99.90
19389;DHT22;9830;41.876;23.474;2024-03-02T13:29:48;12.70;99.90
19389;DHT22;9830;41.876;23.474;2024-03-02T13:32:14;12.60;99.90
19389;DHT22;9830;41.876;23.474;2024-03-02T13:34:40;12.70;99.90
19389;DHT22;9830;41.876;23.474;2024-03-02T13:37:06;12.80;99.90
19389;DHT22;9830;41.876;23.474;2024-03-02T13:39:32;12.80;99.90
19389;DHT22;9830;41.876;23.474;2024-03-02T13:41:58;12.70;99.90
19389;DHT22;9830;41.876;23.474;2024-03-02T13:44:31;12.60;99.90
19389;DHT22;9830;41.876;23.474;2024-03-02T13:46:57;12.50;99.90
19389;DHT22;9830;41.876;23.474;2024-03-02T13:49:23;12.40;99.90
19389;DHT22;9830;41.876;23.474;2024-03-02T13:51:49;12.30;99.90
19389;DHT22;9830;41.876;23.474;2024-03-02T13:54:15;12.30;99.90
19389;DHT22;9830;41.876;23.474;2024-03-02T13:56:41;12.30;99.90
19389;DHT22;9830;41.876;23.474;2024-03-02T13:59:07;12.20;99.90
19389;DHT22;9830;41.876;23.474;2024-03-02T14:01:33;12.10;99.90
19389;DHT22;9830;41.876;23.474;2024-03-02T14:03:59;12.20;99.90
19389;DHT22;9830;41.876;23.474;2024-03-02T14:06:26;12.30;99.90
19389;DHT22;9830;41.876;23.474;2024-03-02T14:08:52;12.50;99.90
19389;DHT22;9830;41.876;23.474;2024-03-02T14:11:18;12.30;99.90
19389;DHT22;9830;41.876;23.474;2024-03-02T14:13:45;12.30;99.90
19389;DHT22;9830;41.876;23.474;2024-03-02T14:16:15;12.30;99.90
19389;DHT22;9830;41.876;23.474;2024-03-02T14:18:41;12.20;99.90
19389;DHT22;9830;41.876;23.474;2024-03-02T14:21:07;12.10;99.90
19389;DHT22;9830;41.876;23.474;2024-03-02T14:23:33;12.10;99.90
19389;DHT22;9830;41.876;23.474;2024-03-02T14:25:59;12.00;99.90
19389;DHT22;9830;41.876;23.474;2024-03-02T14:28:25;12.00;99.90
19389;DHT22;9830;41.876;23.474;2024-03-02T14:30:51;12.00;99.90
19389;DHT22;9830;41.876;23.474;2024-03-02T14:33:16;12.00;99.90
19389;DHT22;9830;41.876;23.474;2024-03-02T14:35:42;12.00;99.90
19389;DHT22;9830;41.876;23.474;2024-03-02T14:38:08;12.00;99.90
19389;DHT22;9830;41.876;23.474;2024-03-02T14:40:34;12.10;99.90
19389;DHT22;9830;41.876;23.474;2024-03-02T14:42:59;12.20;99.90
19389;DHT22;9830;41.876;23.474;2024-03-02T14:45:25;12.10;99.90
19389;DHT22;9830;41.876;23.474;2024-03-02T14:47:52;12.00;99.90
19389;DHT22;9830;41.876;23.474;2024-03-02T14:50:18;11.90;99.90
19389;DHT22;9830;41.876;23.474;2024-03-02T14:52:47;11.90;99.90
19389;DHT22;9830;41.876;23.474;2024-03-02T14:55:12;11.90;99.90
19389;DHT22;9830;41.876;23.474;2024-03-02T14:57:38;11.70;99.90
19389;DHT22;9830;41.876;23.474;2024-03-02T15:00:04;11.60;99.90
19389;DHT22;9830;41.876;23.474;2024-03-02T15:02:33;11.60;99.90
19389;DHT22;9830;41.876;23.474;2024-03-02T15:04:59;11.30;99.90
19389;DHT22;9830;41.876;23.474;2024-03-02T15:07:25;11.10;99.90
19389;DHT22;9830;41.876;23.474;2024-03-02T15:09:51;11.00;99.90
19389;DHT22;9830;41.876;23.474;2024-03-02T15:12:16;10.90;99.90
19389;DHT22;9830;41.876;23.474;2024-03-02T15:14:43;10.80;99.90
19389;DHT22;9830;41.876;23.474;2024-03-02T15:17:15;10.70;99.90
19389;DHT22;9830;41.876;23.474;2024-03-02T15:19:45;10.60;99.90
19389;DHT22;9830;41.876;23.474;2024-03-02T15:22:12;10.50;99.90
19389;DHT22;9830;41.876;23.474;2024-03-02T15:24:38;10.40;99.90
19389;DHT22;9830;41.876;23.474;2024-03-02T15:27:04;10.30;99.90
19389;DHT22;9830;41.876;23.474;2024-03-02T15:29:38;10.20;99.90
19389;DHT22;9830;41.876;23.474;2024-03-02T15:32:05;10.10;99.90
19389;DHT22;9830;41.876;23.474;2024-03-02T15:34:32;10.00;99.90
19389;DHT22;9830;41.876;23.474;2024-03-02T15:36:59;9.80;99.90
19389;DHT22;9830;41.876;23.474;2024-03-02T15:39:25;9.80;99.90
19389;DHT22;9830;41.876;23.474;2024-03-02T15:41:51;9.70;99.90
19389;DHT22;9830;41.876;23.474;2024-03-02T15:44:16;9.70;99.90
19389;DHT22;9830;41.876;23.474;2024-03-02T15:46:42;9.60;99.90